sensor_id;sensor_type;location;lat;lon;timestamp;P1;durP1;ratioP1;P2;durP2;ratioP2
52106;SDS011;38105;52.968;5.974;2023-03-12T00:00:43;13.98;;;5.55;;
52106;SDS011;38105;52.968;5.974;2023-03-12T00:03:09;13.40;;;5.97;;
52106;SDS011;38105;52.968;5.974;2023-03-12T00:05:41;9.93;;;5.45;;
52106;SDS011;38105;52.968;5.974;2023-03-12T00:10:33;8.50;;;5.70;;
52106;SDS011;38105;52.968;5.974;2023-03-12T00:12:59;12.93;;;6.20;;
52106;SDS011;38105;52.968;5.974;2023-03-12T00:15:25;7.63;;;6.05;;
52106;SDS011;38105;52.968;5.974;2023-03-12T00:17:52;13.18;;;6.28;;
52106;SDS011;38105;52.968;5.974;2023-03-12T00:20:18;11.85;;;6.28;;
52106;SDS011;38105;52.968;5.974;2023-03-12T00:22:44;10.88;;;6.13;;
52106;SDS011;38105;52.968;5.974;2023-03-12T00:25:11;9.60;;;5.95;;
52106;SDS011;38105;52.968;5.974;2023-03-12T00:27:38;11.60;;;6.35;;
52106;SDS011;38105;52.968;5.974;2023-03-12T00:30:04;13.32;;;6.20;;
52106;SDS011;38105;52.968;5.974;2023-03-12T00:32:33;13.98;;;5.90;;
52106;SDS011;38105;52.968;5.974;2023-03-12T00:35:00;11.20;;;6.63;;
52106;SDS011;38105;52.968;5.974;2023-03-12T00:37:27;10.00;;;6.28;;
52106;SDS011;38105;52.968;5.974;2023-03-12T00:39:52;8.57;;;5.50;;
52106;SDS011;38105;52.968;5.974;2023-03-12T00:42:18;9.65;;;5.50;;
52106;SDS011;38105;52.968;5.974;2023-03-12T00:44:43;12.68;;;5.80;;
52106;SDS011;38105;52.968;5.974;2023-03-12T00:47:09;11.13;;;6.00;;
52106;SDS011;38105;52.968;5.974;2023-03-12T00:49:36;14.30;;;5.85;;
52106;SDS011;38105;52.968;5.974;2023-03-12T00:52:02;14.40;;;6.47;;
52106;SDS011;38105;52.968;5.974;2023-03-12T00:54:28;10.07;;;6.07;;
52106;SDS011;38105;52.968;5.974;2023-03-12T00:56:54;12.15;;;5.50;;
52106;SDS011;38105;52.968;5.974;2023-03-12T00:59:19;13.77;;;5.90;;
52106;SDS011;38105;52.968;5.974;2023-03-12T01:01:45;11.25;;;6.43;;
52106;SDS011;38105;52.968;5.974;2023-03-12T01:04:11;11.15;;;6.30;;
52106;SDS011;38105;52.968;5.974;2023-03-12T01:06:37;10.80;;;6.07;;
52106;SDS011;38105;52.968;5.974;2023-03-12T01:09:04;15.38;;;6.53;;
52106;SDS011;38105;52.968;5.974;2023-03-12T01:11:32;14.18;;;6.10;;
52106;SDS011;38105;52.968;5.974;2023-03-12T01:13:58;13.95;;;6.45;;
52106;SDS011;38105;52.968;5.974;2023-03-12T01:16:25;15.40;;;6.57;;
52106;SDS011;38105;52.968;5.974;2023-03-12T01:18:54;9.73;;;6.07;;
52106;SDS011;38105;52.968;5.974;2023-03-12T01:21:20;14.98;;;6.65;;
52106;SDS011;38105;52.968;5.974;2023-03-12T01:23:46;10.50;;;5.82;;
52106;SDS011;38105;52.968;5.974;2023-03-12T01:26:12;11.02;;;6.13;;
52106;SDS011;38105;52.968;5.974;2023-03-12T01:28:37;12.13;;;6.40;;
52106;SDS011;38105;52.968;5.974;2023-03-12T01:31:07;15.48;;;7.32;;
52106;SDS011;38105;52.968;5.974;2023-03-12T01:33:33;13.00;;;6.95;;
52106;SDS011;38105;52.968;5.974;2023-03-12T01:35:58;12.40;;;6.93;;
52106;SDS011;38105;52.968;5.974;2023-03-12T01:38:24;11.27;;;6.10;;
52106;SDS011;38105;52.968;5.974;2023-03-12T01:40:50;11.10;;;5.75;;
52106;SDS011;38105;52.968;5.974;2023-03-12T01:43:23;13.15;;;6.10;;
52106;SDS011;38105;52.968;5.974;2023-03-12T01:46:00;10.20;;;6.25;;
52106;SDS011;38105;52.968;5.974;2023-03-12T01:48:50;11.32;;;5.93;;
52106;SDS011;38105;52.968;5.974;2023-03-12T01:51:23;8.82;;;5.57;;
52106;SDS011;38105;52.968;5.974;2023-03-12T01:53:52;9.77;;;5.82;;
52106;SDS011;38105;52.968;5.974;2023-03-12T01:56:20;9.30;;;5.25;;
52106;SDS011;38105;52.968;5.974;2023-03-12T01:58:48;13.45;;;5.70;;
52106;SDS011;38105;52.968;5.974;2023-03-12T02:01:17;14.90;;;5.80;;
52106;SDS011;38105;52.968;5.974;2023-03-12T02:03:44;10.93;;;6.28;;
52106;SDS011;38105;52.968;5.974;2023-03-12T02:06:12;11.52;;;5.80;;
52106;SDS011;38105;52.968;5.974;2023-03-12T02:08:41;9.38;;;5.28;;
52106;SDS011;38105;52.968;5.974;2023-03-12T02:11:09;10.30;;;5.00;;
52106;SDS011;38105;52.968;5.974;2023-03-12T02:13:35;8.05;;;4.30;;
52106;SDS011;38105;52.968;5.974;2023-03-12T02:16:01;10.32;;;5.05;;
52106;SDS011;38105;52.968;5.974;2023-03-12T02:18:27;9.15;;;4.40;;
52106;SDS011;38105;52.968;5.974;2023-03-12T02:26:29;11.10;;;4.05;;
52106;SDS011;38105;52.968;5.974;2023-03-12T02:28:55;7.45;;;3.83;;
52106;SDS011;38105;52.968;5.974;2023-03-12T02:31:25;8.10;;;3.63;;
52106;SDS011;38105;52.968;5.974;2023-03-12T02:33:56;5.72;;;3.30;;
52106;SDS011;38105;52.968;5.974;2023-03-12T02:36:22;8.98;;;3.80;;
52106;SDS011;38105;52.968;5.974;2023-03-12T02:38:48;7.35;;;3.95;;
52106;SDS011;38105;52.968;5.974;2023-03-12T02:43:57;7.35;;;4.07;;
52106;SDS011;38105;52.968;5.974;2023-03-12T02:46:26;10.45;;;4.32;;
52106;SDS011;38105;52.968;5.974;2023-03-12T02:48:56;8.90;;;4.93;;
52106;SDS011;38105;52.968;5.974;2023-03-12T02:51:22;8.43;;;4.38;;
52106;SDS011;38105;52.968;5.974;2023-03-12T02:53:48;12.82;;;4.70;;
52106;SDS011;38105;52.968;5.974;2023-03-12T02:56:18;10.43;;;3.97;;
52106;SDS011;38105;52.968;5.974;2023-03-12T02:58:48;8.55;;;4.22;;
52106;SDS011;38105;52.968;5.974;2023-03-12T03:01:14;9.85;;;4.40;;
52106;SDS011;38105;52.968;5.974;2023-03-12T03:03:41;8.93;;;4.32;;
52106;SDS011;38105;52.968;5.974;2023-03-12T03:06:06;12.40;;;4.78;;
52106;SDS011;38105;52.968;5.974;2023-03-12T03:08:32;7.38;;;4.22;;
52106;SDS011;38105;52.968;5.974;2023-03-12T03:10:58;9.15;;;4.50;;
52106;SDS011;38105;52.968;5.974;2023-03-12T03:13:26;8.43;;;4.13;;
52106;SDS011;38105;52.968;5.974;2023-03-12T03:15:53;7.32;;;3.75;;
52106;SDS011;38105;52.968;5.974;2023-03-12T03:18:21;10.88;;;3.63;;
52106;SDS011;38105;52.968;5.974;2023-03-12T03:20:53;11.63;;;4.60;;
52106;SDS011;38105;52.968;5.974;2023-03-12T03:23:23;9.18;;;3.90;;
52106;SDS011;38105;52.968;5.974;2023-03-12T03:25:49;8.05;;;3.60;;
52106;SDS011;38105;52.968;5.974;2023-03-12T03:28:17;8.18;;;4.03;;
52106;SDS011;38105;52.968;5.974;2023-03-12T03:30:47;12.38;;;3.58;;
52106;SDS011;38105;52.968;5.974;2023-03-12T03:33:13;6.10;;;3.72;;
52106;SDS011;38105;52.968;5.974;2023-03-12T03:35:39;12.30;;;4.57;;
52106;SDS011;38105;52.968;5.974;2023-03-12T03:38:04;9.10;;;3.90;;
52106;SDS011;38105;52.968;5.974;2023-03-12T03:40:31;11.90;;;4.22;;
52106;SDS011;38105;52.968;5.974;2023-03-12T03:42:57;8.43;;;4.00;;
52106;SDS011;38105;52.968;5.974;2023-03-12T03:45:22;10.10;;;4.70;;
52106;SDS011;38105;52.968;5.974;2023-03-12T03:47:48;9.15;;;4.20;;
52106;SDS011;38105;52.968;5.974;2023-03-12T03:50:14;11.15;;;4.30;;
52106;SDS011;38105;52.968;5.974;2023-03-12T03:52:39;6.55;;;3.95;;
52106;SDS011;38105;52.968;5.974;2023-03-12T03:55:05;7.97;;;4.30;;
52106;SDS011;38105;52.968;5.974;2023-03-12T03:57:31;10.85;;;4.85;;
52106;SDS011;38105;52.968;5.974;2023-03-12T03:59:56;10.50;;;4.50;;
52106;SDS011;38105;52.968;5.974;2023-03-12T04:02:25;12.77;;;4.32;;
52106;SDS011;38105;52.968;5.974;2023-03-12T04:04:52;8.75;;;4.20;;
52106;SDS011;38105;52.968;5.974;2023-03-12T04:07:22;8.77;;;3.63;;
52106;SDS011;38105;52.968;5.974;2023-03-12T04:09:48;14.35;;;4.00;;
52106;SDS011;38105;52.968;5.974;2023-03-12T04:12:15;6.93;;;4.18;;
52106;SDS011;38105;52.968;5.974;2023-03-12T04:14:42;9.68;;;4.43;;
52106;SDS011;38105;52.968;5.974;2023-03-12T04:17:07;8.73;;;4.78;;
52106;SDS011;38105;52.968;5.974;2023-03-12T04:19:33;12.90;;;4.70;;
52106;SDS011;38105;52.968;5.974;2023-03-12T04:21:59;9.27;;;4.05;;
52106;SDS011;38105;52.968;5.974;2023-03-12T04:24:25;9.05;;;4.13;;
52106;SDS011;38105;52.968;5.974;2023-03-12T04:26:51;9.60;;;4.30;;
52106;SDS011;38105;52.968;5.974;2023-03-12T04:29:17;10.40;;;4.80;;
52106;SDS011;38105;52.968;5.974;2023-03-12T04:31:43;14.07;;;4.57;;
52106;SDS011;38105;52.968;5.974;2023-03-12T04:34:10;7.05;;;4.13;;
52106;SDS011;38105;52.968;5.974;2023-03-12T04:36:36;9.45;;;4.38;;
52106;SDS011;38105;52.968;5.974;2023-03-12T04:39:02;8.75;;;4.00;;
52106;SDS011;38105;52.968;5.974;2023-03-12T04:41:31;13.38;;;5.38;;
52106;SDS011;38105;52.968;5.974;2023-03-12T04:43:57;7.28;;;4.00;;
52106;SDS011;38105;52.968;5.974;2023-03-12T04:46:23;15.68;;;4.93;;
52106;SDS011;38105;52.968;5.974;2023-03-12T04:48:49;7.72;;;4.07;;
52106;SDS011;38105;52.968;5.974;2023-03-12T04:51:14;8.77;;;3.95;;
52106;SDS011;38105;52.968;5.974;2023-03-12T04:53:40;12.88;;;4.43;;
52106;SDS011;38105;52.968;5.974;2023-03-12T04:56:06;10.13;;;4.25;;
52106;SDS011;38105;52.968;5.974;2023-03-12T04:58:32;12.65;;;4.88;;
52106;SDS011;38105;52.968;5.974;2023-03-12T05:00:57;8.55;;;4.07;;
52106;SDS011;38105;52.968;5.974;2023-03-12T05:03:23;10.70;;;4.00;;
52106;SDS011;38105;52.968;5.974;2023-03-12T05:05:49;11.90;;;4.20;;
52106;SDS011;38105;52.968;5.974;2023-03-12T05:08:14;13.80;;;3.97;;
52106;SDS011;38105;52.968;5.974;2023-03-12T05:10:40;9.00;;;4.35;;
52106;SDS011;38105;52.968;5.974;2023-03-12T05:13:19;12.00;;;3.97;;
52106;SDS011;38105;52.968;5.974;2023-03-12T05:15:46;10.02;;;3.70;;
52106;SDS011;38105;52.968;5.974;2023-03-12T05:18:14;8.13;;;3.92;;
52106;SDS011;38105;52.968;5.974;2023-03-12T05:20:41;7.72;;;3.65;;
52106;SDS011;38105;52.968;5.974;2023-03-12T05:23:06;9.38;;;3.80;;
52106;SDS011;38105;52.968;5.974;2023-03-12T05:25:32;7.47;;;3.90;;
52106;SDS011;38105;52.968;5.974;2023-03-12T05:27:58;7.55;;;4.07;;
52106;SDS011;38105;52.968;5.974;2023-03-12T05:30:23;7.10;;;3.78;;
52106;SDS011;38105;52.968;5.974;2023-03-12T05:32:49;8.27;;;3.55;;
52106;SDS011;38105;52.968;5.974;2023-03-12T05:35:14;14.15;;;3.65;;
52106;SDS011;38105;52.968;5.974;2023-03-12T05:37:40;7.38;;;3.78;;
52106;SDS011;38105;52.968;5.974;2023-03-12T05:40:08;7.57;;;3.50;;
52106;SDS011;38105;52.968;5.974;2023-03-12T05:42:35;8.55;;;4.03;;
52106;SDS011;38105;52.968;5.974;2023-03-12T05:45:02;8.10;;;4.20;;
52106;SDS011;38105;52.968;5.974;2023-03-12T05:47:28;8.90;;;4.40;;
52106;SDS011;38105;52.968;5.974;2023-03-12T05:49:54;8.77;;;4.03;;
52106;SDS011;38105;52.968;5.974;2023-03-12T05:52:19;10.52;;;3.72;;
52106;SDS011;38105;52.968;5.974;2023-03-12T05:54:45;9.65;;;3.72;;
52106;SDS011;38105;52.968;5.974;2023-03-12T05:57:11;7.68;;;3.90;;
52106;SDS011;38105;52.968;5.974;2023-03-12T05:59:36;6.53;;;3.45;;
52106;SDS011;38105;52.968;5.974;2023-03-12T06:02:02;10.23;;;4.15;;
52106;SDS011;38105;52.968;5.974;2023-03-12T06:04:28;8.90;;;3.72;;
52106;SDS011;38105;52.968;5.974;2023-03-12T06:06:54;9.43;;;4.03;;
52106;SDS011;38105;52.968;5.974;2023-03-12T06:09:20;10.57;;;4.18;;
52106;SDS011;38105;52.968;5.974;2023-03-12T06:11:45;8.52;;;3.85;;
52106;SDS011;38105;52.968;5.974;2023-03-12T06:14:11;6.20;;;3.85;;
52106;SDS011;38105;52.968;5.974;2023-03-12T06:16:37;12.90;;;3.80;;
52106;SDS011;38105;52.968;5.974;2023-03-12T06:19:03;8.15;;;4.00;;
52106;SDS011;38105;52.968;5.974;2023-03-12T06:21:30;7.07;;;4.00;;
52106;SDS011;38105;52.968;5.974;2023-03-12T06:23:58;6.90;;;3.88;;
52106;SDS011;38105;52.968;5.974;2023-03-12T06:26:24;7.22;;;3.90;;
52106;SDS011;38105;52.968;5.974;2023-03-12T06:28:50;8.60;;;3.78;;
52106;SDS011;38105;52.968;5.974;2023-03-12T06:31:17;13.65;;;3.85;;
52106;SDS011;38105;52.968;5.974;2023-03-12T06:33:44;7.55;;;3.50;;
52106;SDS011;38105;52.968;5.974;2023-03-12T06:36:09;6.85;;;3.60;;
52106;SDS011;38105;52.968;5.974;2023-03-12T06:38:35;7.68;;;3.85;;
52106;SDS011;38105;52.968;5.974;2023-03-12T06:41:03;8.70;;;4.25;;
52106;SDS011;38105;52.968;5.974;2023-03-12T06:43:37;8.23;;;4.50;;
52106;SDS011;38105;52.968;5.974;2023-03-12T06:46:04;13.52;;;5.30;;
52106;SDS011;38105;52.968;5.974;2023-03-12T06:48:31;9.35;;;4.55;;
52106;SDS011;38105;52.968;5.974;2023-03-12T06:51:00;8.55;;;4.43;;
52106;SDS011;38105;52.968;5.974;2023-03-12T06:53:30;9.82;;;5.07;;
52106;SDS011;38105;52.968;5.974;2023-03-12T06:55:56;13.32;;;5.40;;
52106;SDS011;38105;52.968;5.974;2023-03-12T06:58:22;14.13;;;5.15;;
52106;SDS011;38105;52.968;5.974;2023-03-12T07:00:48;11.82;;;5.00;;
52106;SDS011;38105;52.968;5.974;2023-03-12T07:03:13;12.00;;;5.60;;
52106;SDS011;38105;52.968;5.974;2023-03-12T07:05:42;14.82;;;4.60;;
52106;SDS011;38105;52.968;5.974;2023-03-12T07:08:09;16.75;;;6.15;;
52106;SDS011;38105;52.968;5.974;2023-03-12T07:10:34;8.10;;;5.45;;
52106;SDS011;38105;52.968;5.974;2023-03-12T07:13:00;8.93;;;5.13;;
52106;SDS011;38105;52.968;5.974;2023-03-12T07:15:26;13.27;;;5.50;;
52106;SDS011;38105;52.968;5.974;2023-03-12T07:17:51;11.13;;;5.28;;
52106;SDS011;38105;52.968;5.974;2023-03-12T07:20:17;16.40;;;6.07;;
52106;SDS011;38105;52.968;5.974;2023-03-12T07:22:43;9.60;;;5.57;;
52106;SDS011;38105;52.968;5.974;2023-03-12T07:25:09;11.70;;;5.75;;
52106;SDS011;38105;52.968;5.974;2023-03-12T07:27:35;18.50;;;10.40;;
52106;SDS011;38105;52.968;5.974;2023-03-12T07:30:01;13.73;;;6.47;;
52106;SDS011;38105;52.968;5.974;2023-03-12T07:32:27;12.05;;;6.03;;
52106;SDS011;38105;52.968;5.974;2023-03-12T07:34:52;10.98;;;6.13;;
52106;SDS011;38105;52.968;5.974;2023-03-12T07:37:18;11.02;;;6.72;;
52106;SDS011;38105;52.968;5.974;2023-03-12T07:39:44;11.90;;;5.93;;
52106;SDS011;38105;52.968;5.974;2023-03-12T07:42:10;10.75;;;6.40;;
52106;SDS011;38105;52.968;5.974;2023-03-12T07:44:37;9.95;;;5.82;;
52106;SDS011;38105;52.968;5.974;2023-03-12T07:47:02;12.45;;;6.32;;
52106;SDS011;38105;52.968;5.974;2023-03-12T07:49:28;11.55;;;6.45;;
52106;SDS011;38105;52.968;5.974;2023-03-12T07:51:54;12.48;;;7.43;;
52106;SDS011;38105;52.968;5.974;2023-03-12T07:54:20;12.93;;;6.68;;
52106;SDS011;38105;52.968;5.974;2023-03-12T07:56:49;12.68;;;7.05;;
52106;SDS011;38105;52.968;5.974;2023-03-12T07:59:15;12.60;;;6.57;;
52106;SDS011;38105;52.968;5.974;2023-03-12T08:01:40;14.82;;;7.47;;
52106;SDS011;38105;52.968;5.974;2023-03-12T08:04:06;9.15;;;6.50;;
52106;SDS011;38105;52.968;5.974;2023-03-12T08:06:32;15.10;;;7.10;;
52106;SDS011;38105;52.968;5.974;2023-03-12T08:08:57;10.63;;;7.03;;
52106;SDS011;38105;52.968;5.974;2023-03-12T08:11:23;15.32;;;7.40;;
52106;SDS011;38105;52.968;5.974;2023-03-12T08:13:49;12.27;;;7.90;;
52106;SDS011;38105;52.968;5.974;2023-03-12T08:16:14;14.25;;;7.82;;
52106;SDS011;38105;52.968;5.974;2023-03-12T08:18:40;14.68;;;7.07;;
52106;SDS011;38105;52.968;5.974;2023-03-12T08:21:07;17.05;;;7.45;;
52106;SDS011;38105;52.968;5.974;2023-03-12T08:23:32;14.75;;;8.27;;
52106;SDS011;38105;52.968;5.974;2023-03-12T08:25:59;14.43;;;8.35;;
52106;SDS011;38105;52.968;5.974;2023-03-12T08:28:25;14.50;;;8.55;;
52106;SDS011;38105;52.968;5.974;2023-03-12T08:30:52;17.27;;;9.73;;
52106;SDS011;38105;52.968;5.974;2023-03-12T08:33:20;16.90;;;9.73;;
52106;SDS011;38105;52.968;5.974;2023-03-12T08:35:47;19.15;;;11.20;;
52106;SDS011;38105;52.968;5.974;2023-03-12T08:38:13;20.25;;;10.68;;
52106;SDS011;38105;52.968;5.974;2023-03-12T08:40:39;21.10;;;11.52;;
52106;SDS011;38105;52.968;5.974;2023-03-12T08:43:04;20.13;;;11.55;;
52106;SDS011;38105;52.968;5.974;2023-03-12T08:45:31;17.42;;;12.80;;
52106;SDS011;38105;52.968;5.974;2023-03-12T08:48:00;21.35;;;13.02;;
52106;SDS011;38105;52.968;5.974;2023-03-12T08:50:26;23.60;;;14.27;;
52106;SDS011;38105;52.968;5.974;2023-03-12T08:52:54;19.42;;;12.73;;
52106;SDS011;38105;52.968;5.974;2023-03-12T08:55:20;21.98;;;13.25;;
52106;SDS011;38105;52.968;5.974;2023-03-12T08:57:46;17.05;;;12.63;;
52106;SDS011;38105;52.968;5.974;2023-03-12T09:00:12;22.13;;;13.43;;
52106;SDS011;38105;52.968;5.974;2023-03-12T09:02:41;19.58;;;14.57;;
52106;SDS011;38105;52.968;5.974;2023-03-12T09:05:11;24.10;;;14.65;;
52106;SDS011;38105;52.968;5.974;2023-03-12T09:07:37;21.13;;;13.90;;
52106;SDS011;38105;52.968;5.974;2023-03-12T09:10:03;21.38;;;13.32;;
52106;SDS011;38105;52.968;5.974;2023-03-12T09:12:33;20.63;;;14.55;;
52106;SDS011;38105;52.968;5.974;2023-03-12T09:14:59;21.40;;;13.55;;
52106;SDS011;38105;52.968;5.974;2023-03-12T09:17:24;17.67;;;13.90;;
52106;SDS011;38105;52.968;5.974;2023-03-12T09:19:52;20.95;;;13.65;;
52106;SDS011;38105;52.968;5.974;2023-03-12T09:22:17;19.92;;;12.70;;
52106;SDS011;38105;52.968;5.974;2023-03-12T09:24:43;21.95;;;13.85;;
52106;SDS011;38105;52.968;5.974;2023-03-12T09:27:09;25.40;;;16.00;;
52106;SDS011;38105;52.968;5.974;2023-03-12T09:29:35;22.80;;;16.00;;
52106;SDS011;38105;52.968;5.974;2023-03-12T09:32:00;21.48;;;15.10;;
52106;SDS011;38105;52.968;5.974;2023-03-12T09:34:26;23.40;;;15.00;;
52106;SDS011;38105;52.968;5.974;2023-03-12T09:36:52;16.98;;;14.48;;
52106;SDS011;38105;52.968;5.974;2023-03-12T09:39:17;24.17;;;16.33;;
52106;SDS011;38105;52.968;5.974;2023-03-12T09:41:45;23.33;;;14.63;;
52106;SDS011;38105;52.968;5.974;2023-03-12T09:49:55;19.10;;;15.65;;
52106;SDS011;38105;52.968;5.974;2023-03-12T09:55:37;24.50;;;15.45;;
52106;SDS011;38105;52.968;5.974;2023-03-12T09:58:12;25.13;;;16.75;;
52106;SDS011;38105;52.968;5.974;2023-03-12T10:00:41;24.92;;;16.58;;
52106;SDS011;38105;52.968;5.974;2023-03-12T10:03:08;24.75;;;16.85;;
52106;SDS011;38105;52.968;5.974;2023-03-12T10:08:32;27.35;;;18.02;;
52106;SDS011;38105;52.968;5.974;2023-03-12T10:11:23;21.17;;;16.25;;
52106;SDS011;38105;52.968;5.974;2023-03-12T10:26:09;30.50;;;20.08;;
52106;SDS011;38105;52.968;5.974;2023-03-12T10:28:19;29.00;;;21.27;;
52106;SDS011;38105;52.968;5.974;2023-03-12T10:30:56;26.40;;;21.63;;
52106;SDS011;38105;52.968;5.974;2023-03-12T10:33:28;34.00;;;22.70;;
52106;SDS011;38105;52.968;5.974;2023-03-12T10:36:27;26.58;;;20.50;;
52106;SDS011;38105;52.968;5.974;2023-03-12T10:38:53;29.52;;;20.25;;
52106;SDS011;38105;52.968;5.974;2023-03-12T10:41:23;30.83;;;21.10;;
52106;SDS011;38105;52.968;5.974;2023-03-12T10:43:52;33.38;;;20.83;;
52106;SDS011;38105;52.968;5.974;2023-03-12T10:46:28;30.05;;;22.42;;
52106;SDS011;38105;52.968;5.974;2023-03-12T10:51:52;35.35;;;23.20;;
52106;SDS011;38105;52.968;5.974;2023-03-12T10:54:21;37.13;;;23.65;;
52106;SDS011;38105;52.968;5.974;2023-03-12T10:56:51;36.70;;;24.42;;
52106;SDS011;38105;52.968;5.974;2023-03-12T10:59:20;38.17;;;26.38;;
52106;SDS011;38105;52.968;5.974;2023-03-12T11:01:51;43.75;;;28.23;;
52106;SDS011;38105;52.968;5.974;2023-03-12T11:04:18;43.30;;;28.60;;
52106;SDS011;38105;52.968;5.974;2023-03-12T11:07:14;39.90;;;26.83;;
52106;SDS011;38105;52.968;5.974;2023-03-12T11:09:40;56.10;;;32.90;;
52106;SDS011;38105;52.968;5.974;2023-03-12T11:12:22;54.30;;;33.30;;
52106;SDS011;38105;52.968;5.974;2023-03-12T11:14:50;56.25;;;33.78;;
52106;SDS011;38105;52.968;5.974;2023-03-12T11:17:23;52.35;;;35.42;;
52106;SDS011;38105;52.968;5.974;2023-03-12T11:19:51;63.53;;;37.88;;
52106;SDS011;38105;52.968;5.974;2023-03-12T11:22:30;65.10;;;38.28;;
52106;SDS011;38105;52.968;5.974;2023-03-12T11:25:02;65.40;;;39.38;;
52106;SDS011;38105;52.968;5.974;2023-03-12T11:29:56;68.70;;;38.53;;
52106;SDS011;38105;52.968;5.974;2023-03-12T11:32:24;61.60;;;37.13;;
52106;SDS011;38105;52.968;5.974;2023-03-12T11:34:57;55.85;;;35.45;;
52106;SDS011;38105;52.968;5.974;2023-03-12T11:51:17;72.75;;;40.53;;
52106;SDS011;38105;52.968;5.974;2023-03-12T11:54:10;64.45;;;37.33;;
52106;SDS011;38105;52.968;5.974;2023-03-12T11:56:50;80.00;;;38.10;;
52106;SDS011;38105;52.968;5.974;2023-03-12T12:27:18;45.38;;;19.92;;
52106;SDS011;38105;52.968;5.974;2023-03-12T12:35:28;41.47;;;14.40;;
52106;SDS011;38105;52.968;5.974;2023-03-12T12:38:13;47.08;;;15.65;;
52106;SDS011;38105;52.968;5.974;2023-03-12T12:40:46;44.03;;;15.52;;
52106;SDS011;38105;52.968;5.974;2023-03-12T12:45:52;48.92;;;17.33;;
52106;SDS011;38105;52.968;5.974;2023-03-12T12:48:42;57.70;;;16.45;;
52106;SDS011;38105;52.968;5.974;2023-03-12T12:51:06;41.30;;;15.30;;
52106;SDS011;38105;52.968;5.974;2023-03-12T12:56:17;46.78;;;14.73;;
52106;SDS011;38105;52.968;5.974;2023-03-12T13:01:21;51.40;;;16.58;;
52106;SDS011;38105;52.968;5.974;2023-03-12T13:03:47;55.10;;;15.35;;
52106;SDS011;38105;52.968;5.974;2023-03-12T13:06:14;39.15;;;12.48;;
52106;SDS011;38105;52.968;5.974;2023-03-12T13:13:50;40.72;;;9.80;;
52106;SDS011;38105;52.968;5.974;2023-03-12T13:16:42;44.65;;;10.25;;
52106;SDS011;38105;52.968;5.974;2023-03-12T13:24:48;50.83;;;9.30;;
52106;SDS011;38105;52.968;5.974;2023-03-12T13:29:48;46.28;;;9.77;;
52106;SDS011;38105;52.968;5.974;2023-03-12T13:40:32;38.75;;;8.48;;
52106;SDS011;38105;52.968;5.974;2023-03-12T13:43:16;37.20;;;7.60;;
52106;SDS011;38105;52.968;5.974;2023-03-12T13:46:04;43.50;;;7.75;;
52106;SDS011;38105;52.968;5.974;2023-03-12T13:48:34;49.20;;;8.40;;
52106;SDS011;38105;52.968;5.974;2023-03-12T13:51:14;45.10;;;8.38;;
52106;SDS011;38105;52.968;5.974;2023-03-12T13:53:46;45.88;;;7.53;;
52106;SDS011;38105;52.968;5.974;2023-03-12T13:56:16;43.40;;;7.00;;
52106;SDS011;38105;52.968;5.974;2023-03-12T14:01:14;56.55;;;8.95;;
52106;SDS011;38105;52.968;5.974;2023-03-12T14:03:49;42.42;;;6.70;;
52106;SDS011;38105;52.968;5.974;2023-03-12T14:06:25;45.85;;;8.32;;
52106;SDS011;38105;52.968;5.974;2023-03-12T14:11:49;48.05;;;7.70;;
52106;SDS011;38105;52.968;5.974;2023-03-12T14:16:54;51.40;;;7.78;;
52106;SDS011;38105;52.968;5.974;2023-03-12T14:19:26;50.42;;;8.43;;
52106;SDS011;38105;52.968;5.974;2023-03-12T14:21:54;51.95;;;9.40;;
52106;SDS011;38105;52.968;5.974;2023-03-12T14:24:26;44.20;;;8.05;;
52106;SDS011;38105;52.968;5.974;2023-03-12T14:27:10;41.20;;;7.72;;
52106;SDS011;38105;52.968;5.974;2023-03-12T14:29:40;42.30;;;8.25;;
52106;SDS011;38105;52.968;5.974;2023-03-12T14:32:16;44.42;;;7.20;;
52106;SDS011;38105;52.968;5.974;2023-03-12T14:34:50;47.88;;;7.38;;
52106;SDS011;38105;52.968;5.974;2023-03-12T14:37:24;46.00;;;7.30;;
52106;SDS011;38105;52.968;5.974;2023-03-12T14:40:00;49.65;;;8.27;;
52106;SDS011;38105;52.968;5.974;2023-03-12T14:42:32;48.58;;;7.63;;
52106;SDS011;38105;52.968;5.974;2023-03-12T14:45:00;46.00;;;8.23;;
52106;SDS011;38105;52.968;5.974;2023-03-12T14:50:15;42.00;;;7.35;;
52106;SDS011;38105;52.968;5.974;2023-03-12T14:52:45;47.00;;;8.18;;
52106;SDS011;38105;52.968;5.974;2023-03-12T14:55:12;52.75;;;8.30;;
52106;SDS011;38105;52.968;5.974;2023-03-12T14:57:40;51.25;;;8.70;;
52106;SDS011;38105;52.968;5.974;2023-03-12T15:00:06;38.03;;;7.50;;
52106;SDS011;38105;52.968;5.974;2023-03-12T15:02:40;52.85;;;8.35;;
52106;SDS011;38105;52.968;5.974;2023-03-12T15:05:25;56.83;;;8.35;;
52106;SDS011;38105;52.968;5.974;2023-03-12T15:07:51;49.53;;;9.35;;
52106;SDS011;38105;52.968;5.974;2023-03-12T15:10:26;47.28;;;7.90;;
52106;SDS011;38105;52.968;5.974;2023-03-12T15:12:54;46.92;;;7.55;;
52106;SDS011;38105;52.968;5.974;2023-03-12T15:18:07;53.20;;;8.93;;
52106;SDS011;38105;52.968;5.974;2023-03-12T15:20:47;44.88;;;9.02;;
52106;SDS011;38105;52.968;5.974;2023-03-12T15:23:14;41.90;;;8.25;;
52106;SDS011;38105;52.968;5.974;2023-03-12T15:25:42;51.47;;;9.48;;
52106;SDS011;38105;52.968;5.974;2023-03-12T15:30:34;53.65;;;8.95;;
52106;SDS011;38105;52.968;5.974;2023-03-12T15:36:02;50.75;;;8.45;;
52106;SDS011;38105;52.968;5.974;2023-03-12T15:38:47;50.05;;;9.07;;
52106;SDS011;38105;52.968;5.974;2023-03-12T15:41:19;47.47;;;9.07;;
52106;SDS011;38105;52.968;5.974;2023-03-12T15:43:51;56.72;;;9.05;;
52106;SDS011;38105;52.968;5.974;2023-03-12T15:46:19;57.72;;;9.93;;
52106;SDS011;38105;52.968;5.974;2023-03-12T15:48:55;56.85;;;8.60;;
52106;SDS011;38105;52.968;5.974;2023-03-12T15:51:30;54.85;;;9.18;;
52106;SDS011;38105;52.968;5.974;2023-03-12T15:54:18;52.58;;;8.73;;
52106;SDS011;38105;52.968;5.974;2023-03-12T15:56:48;54.50;;;9.15;;
52106;SDS011;38105;52.968;5.974;2023-03-12T16:01:47;58.75;;;9.50;;
52106;SDS011;38105;52.968;5.974;2023-03-12T16:04:13;60.72;;;9.52;;
52106;SDS011;38105;52.968;5.974;2023-03-12T16:06:39;50.38;;;7.93;;
52106;SDS011;38105;52.968;5.974;2023-03-12T16:09:09;47.08;;;8.43;;
52106;SDS011;38105;52.968;5.974;2023-03-12T16:11:40;46.55;;;8.32;;
52106;SDS011;38105;52.968;5.974;2023-03-12T16:14:07;52.65;;;8.07;;
52106;SDS011;38105;52.968;5.974;2023-03-12T16:16:38;46.92;;;9.63;;
52106;SDS011;38105;52.968;5.974;2023-03-12T16:19:08;52.25;;;8.52;;
52106;SDS011;38105;52.968;5.974;2023-03-12T16:21:37;45.83;;;7.97;;
52106;SDS011;38105;52.968;5.974;2023-03-12T16:24:02;48.20;;;7.70;;
52106;SDS011;38105;52.968;5.974;2023-03-12T16:26:28;48.35;;;9.10;;
52106;SDS011;38105;52.968;5.974;2023-03-12T16:28:56;54.78;;;8.65;;
52106;SDS011;38105;52.968;5.974;2023-03-12T16:31:22;47.60;;;7.43;;
52106;SDS011;38105;52.968;5.974;2023-03-12T16:33:48;46.63;;;8.02;;
52106;SDS011;38105;52.968;5.974;2023-03-12T16:36:14;53.47;;;8.95;;
52106;SDS011;38105;52.968;5.974;2023-03-12T16:38:41;50.53;;;8.95;;
52106;SDS011;38105;52.968;5.974;2023-03-12T16:41:26;38.50;;;8.27;;
52106;SDS011;38105;52.968;5.974;2023-03-12T16:43:52;42.40;;;7.00;;
52106;SDS011;38105;52.968;5.974;2023-03-12T16:46:19;60.85;;;9.20;;
52106;SDS011;38105;52.968;5.974;2023-03-12T16:48:50;57.47;;;9.10;;
52106;SDS011;38105;52.968;5.974;2023-03-12T16:51:17;58.97;;;9.18;;
52106;SDS011;38105;52.968;5.974;2023-03-12T16:53:44;51.10;;;9.35;;
52106;SDS011;38105;52.968;5.974;2023-03-12T16:56:16;53.38;;;9.95;;
52106;SDS011;38105;52.968;5.974;2023-03-12T16:58:45;55.25;;;8.73;;
52106;SDS011;38105;52.968;5.974;2023-03-12T17:01:14;57.97;;;8.45;;